Hendersonville, NC

1:07 PM EST on February 10, 2016 (GMT -0500)
Maplewood Ct off Hwy 191 in City | | Change Station
CLOSE
Current Station
Personal Weather Station
Location: Hendersonville, NC
Elevation: 2133 ft
Nearby Weather Stations

Elev 2133 ft 35.33 °N, 82.48 °W | Updated 2 seconds ago

Clear
Clear
28.7 °F
Feels Like 29 °F
N
0.0
Wind Variable Wind from ENE
Gusts 0.0 mph

Today
High -- | Low -- °F
--% Chance of Precip.
Yesterday
High -- | Low -- °F
Precip. -- in
Pressure 29.97 in
Visibility 10.0 miles
Clouds Clear
Windchill 29 °F
Dew Point 17 °F
Humidity 61%
Rainfall 0.00 in
Snow Depth Not available.
7:21 AM 6:06 PM
Waxing Crescent, 6% visible
METAR KAVL 101754Z 36013G17KT 10SM CLR M03/M16 A2991 RMK AO2 SNB27E36 SLP147 P0000 60000 T10331156 11033 21089 50001 $
Pressure 29.97 in
Visibility 10.0 miles
Clouds Clear
Windchill 29 °F
Dew Point 17 °F
Humidity 61%
Rainfall 0.00 in
Snow Depth Not available.
7:21 AM 6:06 PM
Waxing Crescent, 6% visible
METAR KAVL 101754Z 36013G17KT 10SM CLR M03/M16 A2991 RMK AO2 SNB27E36 SLP147 P0000 60000 T10331156 11033 21089 50001 $

10-Day Weather Forecast

Almanac

Astronomy

Feb. 10, 2016 Rise Set
Actual Time
Civil Twilight
Nautical Twilight
Astronomical Twilight
Moon
Length of Visible Light
Length of Day
Tomorrow will be .
, % of the Moon is Illuminated

Today's Extremes

State Highs State Lows

Community

WunderPhotos

Upload Photos

1,891,904 photos uploaded!

WunderBlog® & News

Nearby

Air Quality

  Air Quality AQ Index Pollutant
Not available.

Snow Depth

Station Depth Elevation

Earthquake Activity

City Distance Mag. Time & Date
Minimum magnitude displayed is 2.5.

Coastal Water Temperatures

Place Temperature

Stations

Nearby Weather Stations

Station Location Temp. Windchill Dew Point Humidity Wind Precip. Elev Updated Type
                   

Watches & Warnings

There are currently no watches in effect.